sensor_id;sensor_type;location;lat;lon;timestamp;temperature;humidity
10388;DHT22;5240;51.128;4.566;2023-01-10T00:00:32;5.20;99.90
10388;DHT22;5240;51.128;4.566;2023-01-10T00:03:02;5.20;99.90
10388;DHT22;5240;51.128;4.566;2023-01-10T00:05:30;5.20;99.90
10388;DHT22;5240;51.128;4.566;2023-01-10T00:07:57;5.40;99.90
10388;DHT22;5240;51.128;4.566;2023-01-10T00:10:26;5.50;99.90
10388;DHT22;5240;51.128;4.566;2023-01-10T00:12:53;5.50;99.90
10388;DHT22;5240;51.128;4.566;2023-01-10T00:15:45;5.60;99.90
10388;DHT22;5240;51.128;4.566;2023-01-10T00:18:12;5.60;99.90
10388;DHT22;5240;51.128;4.566;2023-01-10T00:20:39;5.60;99.90
10388;DHT22;5240;51.128;4.566;2023-01-10T00:23:06;5.60;99.90
10388;DHT22;5240;51.128;4.566;2023-01-10T00:25:33;5.70;99.90
10388;DHT22;5240;51.128;4.566;2023-01-10T00:28:00;5.70;99.90
10388;DHT22;5240;51.128;4.566;2023-01-10T00:30:36;5.70;99.90
10388;DHT22;5240;51.128;4.566;2023-01-10T00:33:06;5.80;99.90
10388;DHT22;5240;51.128;4.566;2023-01-10T00:35:34;6.00;99.90
10388;DHT22;5240;51.128;4.566;2023-01-10T00:38:01;5.90;99.90
10388;DHT22;5240;51.128;4.566;2023-01-10T00:40:30;5.90;99.90
10388;DHT22;5240;51.128;4.566;2023-01-10T00:42:58;6.00;99.90
10388;DHT22;5240;51.128;4.566;2023-01-10T00:45:43;6.00;99.90
10388;DHT22;5240;51.128;4.566;2023-01-10T00:48:12;6.00;99.90
10388;DHT22;5240;51.128;4.566;2023-01-10T00:50:40;5.90;99.90
10388;DHT22;5240;51.128;4.566;2023-01-10T00:53:07;6.00;99.90
10388;DHT22;5240;51.128;4.566;2023-01-10T00:55:35;6.00;99.90
10388;DHT22;5240;51.128;4.566;2023-01-10T00:58:02;6.00;99.90
10388;DHT22;5240;51.128;4.566;2023-01-10T01:00:29;6.00;99.90
10388;DHT22;5240;51.128;4.566;2023-01-10T01:02:56;6.10;99.90
10388;DHT22;5240;51.128;4.566;2023-01-10T01:05:25;6.20;99.90
10388;DHT22;5240;51.128;4.566;2023-01-10T01:07:52;6.30;99.90
10388;DHT22;5240;51.128;4.566;2023-01-10T01:10:19;6.30;99.90
10388;DHT22;5240;51.128;4.566;2023-01-10T01:12:52;6.40;99.90
10388;DHT22;5240;51.128;4.566;2023-01-10T01:15:20;6.40;99.90
10388;DHT22;5240;51.128;4.566;2023-01-10T01:17:47;6.40;99.90
10388;DHT22;5240;51.128;4.566;2023-01-10T01:20:16;6.40;99.90
10388;DHT22;5240;51.128;4.566;2023-01-10T01:22:46;6.10;99.90
10388;DHT22;5240;51.128;4.566;2023-01-10T01:25:13;6.40;99.90
10388;DHT22;5240;51.128;4.566;2023-01-10T01:27:40;6.40;99.90
10388;DHT22;5240;51.128;4.566;2023-01-10T01:30:09;6.40;99.90
10388;DHT22;5240;51.128;4.566;2023-01-10T01:32:36;6.40;99.90
10388;DHT22;5240;51.128;4.566;2023-01-10T01:35:04;6.60;99.90
10388;DHT22;5240;51.128;4.566;2023-01-10T01:37:31;6.50;99.90
10388;DHT22;5240;51.128;4.566;2023-01-10T01:39:59;6.40;99.90
10388;DHT22;5240;51.128;4.566;2023-01-10T01:42:28;6.40;99.90
10388;DHT22;5240;51.128;4.566;2023-01-10T01:45:25;6.40;99.90
10388;DHT22;5240;51.128;4.566;2023-01-10T01:47:59;6.20;99.90
10388;DHT22;5240;51.128;4.566;2023-01-10T01:50:31;6.10;99.90
10388;DHT22;5240;51.128;4.566;2023-01-10T01:53:02;6.10;99.90
10388;DHT22;5240;51.128;4.566;2023-01-10T01:55:32;5.90;99.90
10388;DHT22;5240;51.128;4.566;2023-01-10T01:58:04;5.90;99.90
10388;DHT22;5240;51.128;4.566;2023-01-10T02:00:32;5.80;99.90
10388;DHT22;5240;51.128;4.566;2023-01-10T02:03:01;5.90;99.90
10388;DHT22;5240;51.128;4.566;2023-01-10T02:05:29;5.80;99.90
10388;DHT22;5240;51.128;4.566;2023-01-10T02:07:57;5.80;99.90
10388;DHT22;5240;51.128;4.566;2023-01-10T02:10:31;5.80;99.90
10388;DHT22;5240;51.128;4.566;2023-01-10T02:13:02;5.80;99.90
10388;DHT22;5240;51.128;4.566;2023-01-10T02:15:30;5.70;99.90
10388;DHT22;5240;51.128;4.566;2023-01-10T02:17:58;5.90;99.90
10388;DHT22;5240;51.128;4.566;2023-01-10T02:20:27;5.80;99.90
10388;DHT22;5240;51.128;4.566;2023-01-10T02:23:18;5.80;99.90
10388;DHT22;5240;51.128;4.566;2023-01-10T02:26:23;5.90;99.90
10388;DHT22;5240;51.128;4.566;2023-01-10T02:29:35;6.00;99.90
10388;DHT22;5240;51.128;4.566;2023-01-10T02:32:17;6.00;99.90
10388;DHT22;5240;51.128;4.566;2023-01-10T02:34:56;5.60;99.90
10388;DHT22;5240;51.128;4.566;2023-01-10T02:37:34;6.00;99.90
10388;DHT22;5240;51.128;4.566;2023-01-10T02:40:08;6.00;99.90
10388;DHT22;5240;51.128;4.566;2023-01-10T02:42:43;6.10;99.90
10388;DHT22;5240;51.128;4.566;2023-01-10T02:45:17;6.10;99.90
10388;DHT22;5240;51.128;4.566;2023-01-10T02:47:48;6.10;99.90
10388;DHT22;5240;51.128;4.566;2023-01-10T02:50:30;6.10;99.90
10388;DHT22;5240;51.128;4.566;2023-01-10T02:53:05;6.10;99.90
10388;DHT22;5240;51.128;4.566;2023-01-10T02:55:38;6.10;99.90
10388;DHT22;5240;51.128;4.566;2023-01-10T02:58:17;6.00;99.90
10388;DHT22;5240;51.128;4.566;2023-01-10T03:00:53;6.00;99.90
10388;DHT22;5240;51.128;4.566;2023-01-10T03:03:30;5.90;99.90
10388;DHT22;5240;51.128;4.566;2023-01-10T03:06:10;5.50;99.90
10388;DHT22;5240;51.128;4.566;2023-01-10T03:08:45;5.70;99.90
10388;DHT22;5240;51.128;4.566;2023-01-10T03:11:14;5.20;99.90
10388;DHT22;5240;51.128;4.566;2023-01-10T03:13:45;5.50;99.90
10388;DHT22;5240;51.128;4.566;2023-01-10T03:16:17;5.60;99.90
10388;DHT22;5240;51.128;4.566;2023-01-10T03:18:49;5.50;99.90
10388;DHT22;5240;51.128;4.566;2023-01-10T03:21:19;5.50;99.90
10388;DHT22;5240;51.128;4.566;2023-01-10T03:23:49;5.40;99.90
10388;DHT22;5240;51.128;4.566;2023-01-10T03:26:25;5.30;99.90
10388;DHT22;5240;51.128;4.566;2023-01-10T03:28:58;5.40;99.90
10388;DHT22;5240;51.128;4.566;2023-01-10T03:31:30;5.30;99.90
10388;DHT22;5240;51.128;4.566;2023-01-10T03:33:59;5.30;99.90
10388;DHT22;5240;51.128;4.566;2023-01-10T03:36:30;5.30;99.90
10388;DHT22;5240;51.128;4.566;2023-01-10T03:39:06;5.20;99.90
10388;DHT22;5240;51.128;4.566;2023-01-10T03:41:39;5.10;99.90
10388;DHT22;5240;51.128;4.566;2023-01-10T03:44:15;5.10;99.90
10388;DHT22;5240;51.128;4.566;2023-01-10T03:47:03;5.00;99.90
10388;DHT22;5240;51.128;4.566;2023-01-10T03:49:36;5.00;99.90
10388;DHT22;5240;51.128;4.566;2023-01-10T03:52:05;4.90;99.90
10388;DHT22;5240;51.128;4.566;2023-01-10T03:54:33;4.90;99.90
10388;DHT22;5240;51.128;4.566;2023-01-10T03:57:00;4.90;99.90
10388;DHT22;5240;51.128;4.566;2023-01-10T03:59:27;4.90;99.90
10388;DHT22;5240;51.128;4.566;2023-01-10T04:01:55;4.90;99.90
10388;DHT22;5240;51.128;4.566;2023-01-10T04:04:22;5.00;99.90
10388;DHT22;5240;51.128;4.566;2023-01-10T04:06:51;5.00;99.90
10388;DHT22;5240;51.128;4.566;2023-01-10T04:09:18;5.00;99.90
10388;DHT22;5240;51.128;4.566;2023-01-10T04:11:45;4.30;99.90
10388;DHT22;5240;51.128;4.566;2023-01-10T04:14:12;5.00;99.90
10388;DHT22;5240;51.128;4.566;2023-01-10T04:16:39;5.00;99.90
10388;DHT22;5240;51.128;4.566;2023-01-10T04:19:06;4.80;99.90
10388;DHT22;5240;51.128;4.566;2023-01-10T04:21:33;4.80;99.90
10388;DHT22;5240;51.128;4.566;2023-01-10T04:24:02;4.70;99.90
10388;DHT22;5240;51.128;4.566;2023-01-10T04:26:29;4.70;99.90
10388;DHT22;5240;51.128;4.566;2023-01-10T04:28:56;4.70;99.90
10388;DHT22;5240;51.128;4.566;2023-01-10T04:31:23;4.70;99.90
10388;DHT22;5240;51.128;4.566;2023-01-10T04:33:51;4.70;99.90
10388;DHT22;5240;51.128;4.566;2023-01-10T04:36:18;4.70;99.90
10388;DHT22;5240;51.128;4.566;2023-01-10T04:38:45;4.70;99.90
10388;DHT22;5240;51.128;4.566;2023-01-10T04:41:14;4.70;99.90
10388;DHT22;5240;51.128;4.566;2023-01-10T04:43:41;4.70;99.90
10388;DHT22;5240;51.128;4.566;2023-01-10T04:46:08;4.60;99.90
10388;DHT22;5240;51.128;4.566;2023-01-10T04:48:35;4.70;99.90
10388;DHT22;5240;51.128;4.566;2023-01-10T04:51:02;4.60;99.90
10388;DHT22;5240;51.128;4.566;2023-01-10T04:53:29;4.60;99.90
10388;DHT22;5240;51.128;4.566;2023-01-10T04:56:01;4.60;99.90
10388;DHT22;5240;51.128;4.566;2023-01-10T04:58:31;4.70;99.90
10388;DHT22;5240;51.128;4.566;2023-01-10T05:00:58;4.60;99.90
10388;DHT22;5240;51.128;4.566;2023-01-10T05:03:25;4.60;99.90
10388;DHT22;5240;51.128;4.566;2023-01-10T05:05:53;4.60;99.90
10388;DHT22;5240;51.128;4.566;2023-01-10T05:08:20;4.70;99.90
10388;DHT22;5240;51.128;4.566;2023-01-10T05:10:47;4.70;99.90
10388;DHT22;5240;51.128;4.566;2023-01-10T05:13:14;4.70;99.90
10388;DHT22;5240;51.128;4.566;2023-01-10T05:15:42;4.70;99.90
10388;DHT22;5240;51.128;4.566;2023-01-10T05:18:09;4.70;99.90
10388;DHT22;5240;51.128;4.566;2023-01-10T05:20:36;4.70;99.90
10388;DHT22;5240;51.128;4.566;2023-01-10T05:23:03;4.70;99.90
10388;DHT22;5240;51.128;4.566;2023-01-10T05:25:30;4.70;99.90
10388;DHT22;5240;51.128;4.566;2023-01-10T05:27:57;4.70;99.90
10388;DHT22;5240;51.128;4.566;2023-01-10T05:30:25;4.70;99.90
10388;DHT22;5240;51.128;4.566;2023-01-10T05:32:54;4.70;99.90
10388;DHT22;5240;51.128;4.566;2023-01-10T05:35:21;4.70;99.90
10388;DHT22;5240;51.128;4.566;2023-01-10T05:37:48;4.60;99.90
10388;DHT22;5240;51.128;4.566;2023-01-10T05:40:16;4.60;99.90
10388;DHT22;5240;51.128;4.566;2023-01-10T05:42:43;4.60;99.90
10388;DHT22;5240;51.128;4.566;2023-01-10T05:45:10;4.70;99.90
10388;DHT22;5240;51.128;4.566;2023-01-10T05:47:37;4.60;99.90
10388;DHT22;5240;51.128;4.566;2023-01-10T05:50:06;4.70;99.90
10388;DHT22;5240;51.128;4.566;2023-01-10T05:52:34;5.00;99.90
10388;DHT22;5240;51.128;4.566;2023-01-10T05:55:01;4.70;99.90
10388;DHT22;5240;51.128;4.566;2023-01-10T05:57:28;4.60;99.90
10388;DHT22;5240;51.128;4.566;2023-01-10T05:59:55;4.70;99.90
10388;DHT22;5240;51.128;4.566;2023-01-10T06:02:22;4.70;99.90
10388;DHT22;5240;51.128;4.566;2023-01-10T06:04:51;4.70;99.90
10388;DHT22;5240;51.128;4.566;2023-01-10T06:07:22;4.70;99.90
10388;DHT22;5240;51.128;4.566;2023-01-10T06:09:49;4.70;99.90
10388;DHT22;5240;51.128;4.566;2023-01-10T06:12:16;4.70;99.90
10388;DHT22;5240;51.128;4.566;2023-01-10T06:14:44;4.70;99.90
10388;DHT22;5240;51.128;4.566;2023-01-10T06:17:11;4.70;99.90
10388;DHT22;5240;51.128;4.566;2023-01-10T06:19:38;4.60;99.90
10388;DHT22;5240;51.128;4.566;2023-01-10T06:22:05;4.60;99.90
10388;DHT22;5240;51.128;4.566;2023-01-10T06:24:34;4.90;99.90
10388;DHT22;5240;51.128;4.566;2023-01-10T06:27:01;4.60;99.90
10388;DHT22;5240;51.128;4.566;2023-01-10T06:29:28;4.60;99.90
10388;DHT22;5240;51.128;4.566;2023-01-10T06:31:55;4.50;99.90
10388;DHT22;5240;51.128;4.566;2023-01-10T06:34:22;4.30;99.90
10388;DHT22;5240;51.128;4.566;2023-01-10T06:36:49;4.50;99.90
10388;DHT22;5240;51.128;4.566;2023-01-10T06:39:16;4.50;99.90
10388;DHT22;5240;51.128;4.566;2023-01-10T06:41:44;4.40;99.90
10388;DHT22;5240;51.128;4.566;2023-01-10T06:44:11;4.50;99.90
10388;DHT22;5240;51.128;4.566;2023-01-10T06:46:38;4.50;99.90
10388;DHT22;5240;51.128;4.566;2023-01-10T06:49:05;4.50;99.90
10388;DHT22;5240;51.128;4.566;2023-01-10T06:51:33;4.40;99.90
10388;DHT22;5240;51.128;4.566;2023-01-10T06:54:00;4.40;99.90
10388;DHT22;5240;51.128;4.566;2023-01-10T06:56:27;4.40;99.90
10388;DHT22;5240;51.128;4.566;2023-01-10T06:58:55;4.50;99.90
10388;DHT22;5240;51.128;4.566;2023-01-10T07:01:22;4.40;99.90
10388;DHT22;5240;51.128;4.566;2023-01-10T07:03:49;4.40;99.90
10388;DHT22;5240;51.128;4.566;2023-01-10T07:06:16;4.50;99.90
10388;DHT22;5240;51.128;4.566;2023-01-10T07:08:45;4.40;99.90
10388;DHT22;5240;51.128;4.566;2023-01-10T07:11:13;4.50;99.90
10388;DHT22;5240;51.128;4.566;2023-01-10T07:13:41;4.50;99.90
10388;DHT22;5240;51.128;4.566;2023-01-10T07:16:11;4.50;99.90
10388;DHT22;5240;51.128;4.566;2023-01-10T07:18:40;4.50;99.90
10388;DHT22;5240;51.128;4.566;2023-01-10T07:21:08;4.50;99.90
10388;DHT22;5240;51.128;4.566;2023-01-10T07:23:35;4.50;99.90
10388;DHT22;5240;51.128;4.566;2023-01-10T07:26:04;4.50;99.90
10388;DHT22;5240;51.128;4.566;2023-01-10T07:28:33;4.50;99.90
10388;DHT22;5240;51.128;4.566;2023-01-10T07:31:02;4.50;99.90
10388;DHT22;5240;51.128;4.566;2023-01-10T07:33:35;4.50;99.90
10388;DHT22;5240;51.128;4.566;2023-01-10T07:36:03;4.60;99.90
10388;DHT22;5240;51.128;4.566;2023-01-10T07:38:31;4.50;99.90
10388;DHT22;5240;51.128;4.566;2023-01-10T07:41:01;4.60;99.90
10388;DHT22;5240;51.128;4.566;2023-01-10T07:43:28;4.50;99.90
10388;DHT22;5240;51.128;4.566;2023-01-10T07:45:58;4.60;99.90
10388;DHT22;5240;51.128;4.566;2023-01-10T07:48:27;4.60;99.90
10388;DHT22;5240;51.128;4.566;2023-01-10T07:51:00;4.60;99.90
10388;DHT22;5240;51.128;4.566;2023-01-10T07:53:28;4.70;99.90
10388;DHT22;5240;51.128;4.566;2023-01-10T07:55:58;4.60;99.90
10388;DHT22;5240;51.128;4.566;2023-01-10T07:58:27;4.70;99.90
10388;DHT22;5240;51.128;4.566;2023-01-10T08:00:57;4.70;99.90
10388;DHT22;5240;51.128;4.566;2023-01-10T08:03:25;4.80;99.90
10388;DHT22;5240;51.128;4.566;2023-01-10T08:06:01;4.80;99.90
10388;DHT22;5240;51.128;4.566;2023-01-10T08:08:29;4.90;99.90
10388;DHT22;5240;51.128;4.566;2023-01-10T08:10:57;4.80;99.90
10388;DHT22;5240;51.128;4.566;2023-01-10T08:13:27;4.90;99.90
10388;DHT22;5240;51.128;4.566;2023-01-10T08:15:54;5.00;99.90
10388;DHT22;5240;51.128;4.566;2023-01-10T08:18:23;5.00;99.90
10388;DHT22;5240;51.128;4.566;2023-01-10T08:20:53;5.10;99.90
10388;DHT22;5240;51.128;4.566;2023-01-10T08:23:22;5.10;99.90
10388;DHT22;5240;51.128;4.566;2023-01-10T08:25:49;5.20;99.90
10388;DHT22;5240;51.128;4.566;2023-01-10T08:28:17;5.20;99.90
10388;DHT22;5240;51.128;4.566;2023-01-10T08:30:44;5.30;99.90
10388;DHT22;5240;51.128;4.566;2023-01-10T08:33:12;5.30;99.90
10388;DHT22;5240;51.128;4.566;2023-01-10T08:35:41;5.30;99.90
10388;DHT22;5240;51.128;4.566;2023-01-10T08:38:08;5.30;99.90
10388;DHT22;5240;51.128;4.566;2023-01-10T08:40:37;5.40;99.90
10388;DHT22;5240;51.128;4.566;2023-01-10T08:43:06;5.30;99.90
10388;DHT22;5240;51.128;4.566;2023-01-10T08:45:34;5.30;99.90
10388;DHT22;5240;51.128;4.566;2023-01-10T08:48:04;5.40;99.90
10388;DHT22;5240;51.128;4.566;2023-01-10T08:50:34;5.00;99.90
10388;DHT22;5240;51.128;4.566;2023-01-10T08:53:01;5.50;99.90
10388;DHT22;5240;51.128;4.566;2023-01-10T08:55:28;5.40;99.90
10388;DHT22;5240;51.128;4.566;2023-01-10T08:57:59;5.40;99.90
10388;DHT22;5240;51.128;4.566;2023-01-10T09:00:26;5.40;99.90
10388;DHT22;5240;51.128;4.566;2023-01-10T09:02:54;5.50;99.90
10388;DHT22;5240;51.128;4.566;2023-01-10T09:05:21;5.60;99.90
10388;DHT22;5240;51.128;4.566;2023-01-10T09:07:50;5.50;99.90
10388;DHT22;5240;51.128;4.566;2023-01-10T09:10:17;5.60;99.90
10388;DHT22;5240;51.128;4.566;2023-01-10T09:12:46;5.60;99.90
10388;DHT22;5240;51.128;4.566;2023-01-10T09:15:29;5.70;99.90
10388;DHT22;5240;51.128;4.566;2023-01-10T09:17:57;5.70;99.90
10388;DHT22;5240;51.128;4.566;2023-01-10T09:20:26;5.70;99.90
10388;DHT22;5240;51.128;4.566;2023-01-10T09:22:53;5.80;99.90
10388;DHT22;5240;51.128;4.566;2023-01-10T09:25:22;5.80;99.90
10388;DHT22;5240;51.128;4.566;2023-01-10T09:27:55;5.90;99.90
10388;DHT22;5240;51.128;4.566;2023-01-10T09:30:57;5.90;99.90
10388;DHT22;5240;51.128;4.566;2023-01-10T09:33:29;5.90;99.90
10388;DHT22;5240;51.128;4.566;2023-01-10T09:35:59;6.00;99.90
10388;DHT22;5240;51.128;4.566;2023-01-10T09:38:29;6.00;99.90
10388;DHT22;5240;51.128;4.566;2023-01-10T09:41:05;5.90;99.90
10388;DHT22;5240;51.128;4.566;2023-01-10T09:43:49;6.10;99.90
10388;DHT22;5240;51.128;4.566;2023-01-10T09:46:23;6.00;99.90
10388;DHT22;5240;51.128;4.566;2023-01-10T09:48:59;6.00;99.90
10388;DHT22;5240;51.128;4.566;2023-01-10T09:51:32;6.00;99.90
10388;DHT22;5240;51.128;4.566;2023-01-10T09:54:04;6.10;99.90
10388;DHT22;5240;51.128;4.566;2023-01-10T09:56:33;6.10;99.90
10388;DHT22;5240;51.128;4.566;2023-01-10T09:59:01;6.10;99.90
10388;DHT22;5240;51.128;4.566;2023-01-10T10:01:32;6.10;99.90
10388;DHT22;5240;51.128;4.566;2023-01-10T10:04:10;6.20;99.90
10388;DHT22;5240;51.128;4.566;2023-01-10T10:06:42;6.20;99.90
10388;DHT22;5240;51.128;4.566;2023-01-10T10:09:11;6.30;99.90
10388;DHT22;5240;51.128;4.566;2023-01-10T10:11:55;6.20;99.90
10388;DHT22;5240;51.128;4.566;2023-01-10T10:14:36;6.20;99.90
10388;DHT22;5240;51.128;4.566;2023-01-10T10:17:20;6.20;99.90
10388;DHT22;5240;51.128;4.566;2023-01-10T10:20:02;6.20;99.90
10388;DHT22;5240;51.128;4.566;2023-01-10T10:22:38;6.40;99.90
10388;DHT22;5240;51.128;4.566;2023-01-10T10:25:17;6.40;99.90
10388;DHT22;5240;51.128;4.566;2023-01-10T10:27:58;6.40;99.90
10388;DHT22;5240;51.128;4.566;2023-01-10T10:30:36;6.40;99.90
10388;DHT22;5240;51.128;4.566;2023-01-10T10:33:25;6.50;99.90
10388;DHT22;5240;51.128;4.566;2023-01-10T10:35:58;6.40;99.90
10388;DHT22;5240;51.128;4.566;2023-01-10T10:38:28;6.50;99.90
10388;DHT22;5240;51.128;4.566;2023-01-10T10:40:58;6.50;99.90
10388;DHT22;5240;51.128;4.566;2023-01-10T10:43:32;6.60;99.90
10388;DHT22;5240;51.128;4.566;2023-01-10T10:46:07;6.70;99.90
10388;DHT22;5240;51.128;4.566;2023-01-10T10:48:39;6.20;99.90
10388;DHT22;5240;51.128;4.566;2023-01-10T10:51:11;6.80;99.90
10388;DHT22;5240;51.128;4.566;2023-01-10T10:53:40;6.80;99.90
10388;DHT22;5240;51.128;4.566;2023-01-10T10:56:12;6.80;99.90
10388;DHT22;5240;51.128;4.566;2023-01-10T10:58:43;6.90;99.90
10388;DHT22;5240;51.128;4.566;2023-01-10T11:01:13;6.80;99.90
10388;DHT22;5240;51.128;4.566;2023-01-10T11:03:45;7.30;99.90
10388;DHT22;5240;51.128;4.566;2023-01-10T11:06:14;7.00;99.90
10388;DHT22;5240;51.128;4.566;2023-01-10T11:08:47;7.00;99.90
10388;DHT22;5240;51.128;4.566;2023-01-10T11:11:21;7.00;99.90
10388;DHT22;5240;51.128;4.566;2023-01-10T11:13:55;7.00;99.90
10388;DHT22;5240;51.128;4.566;2023-01-10T11:16:25;7.10;99.90
10388;DHT22;5240;51.128;4.566;2023-01-10T11:19:15;7.10;99.90
10388;DHT22;5240;51.128;4.566;2023-01-10T11:21:47;7.40;99.90
10388;DHT22;5240;51.128;4.566;2023-01-10T11:24:27;7.40;99.90
10388;DHT22;5240;51.128;4.566;2023-01-10T11:26:57;7.30;99.90
10388;DHT22;5240;51.128;4.566;2023-01-10T11:29:26;7.10;99.90
10388;DHT22;5240;51.128;4.566;2023-01-10T11:31:55;7.10;99.90
10388;DHT22;5240;51.128;4.566;2023-01-10T11:34:28;7.00;99.90
10388;DHT22;5240;51.128;4.566;2023-01-10T11:36:58;7.10;99.90
10388;DHT22;5240;51.128;4.566;2023-01-10T11:39:27;7.10;99.90
10388;DHT22;5240;51.128;4.566;2023-01-10T11:41:55;7.10;99.90
10388;DHT22;5240;51.128;4.566;2023-01-10T11:44:25;7.20;99.90
10388;DHT22;5240;51.128;4.566;2023-01-10T11:46:54;6.60;99.90
10388;DHT22;5240;51.128;4.566;2023-01-10T11:49:31;7.30;99.90
10388;DHT22;5240;51.128;4.566;2023-01-10T11:52:03;7.30;99.90
10388;DHT22;5240;51.128;4.566;2023-01-10T11:54:31;7.30;99.90
10388;DHT22;5240;51.128;4.566;2023-01-10T11:57:02;7.40;99.90
10388;DHT22;5240;51.128;4.566;2023-01-10T11:59:32;7.40;99.90
10388;DHT22;5240;51.128;4.566;2023-01-10T12:02:10;7.50;99.90
10388;DHT22;5240;51.128;4.566;2023-01-10T12:04:43;7.50;99.90
10388;DHT22;5240;51.128;4.566;2023-01-10T12:07:11;7.60;99.90
10388;DHT22;5240;51.128;4.566;2023-01-10T12:09:40;7.60;99.90
10388;DHT22;5240;51.128;4.566;2023-01-10T12:12:17;7.60;99.90
10388;DHT22;5240;51.128;4.566;2023-01-10T12:14:45;7.70;99.90
10388;DHT22;5240;51.128;4.566;2023-01-10T12:17:20;7.70;99.90
10388;DHT22;5240;51.128;4.566;2023-01-10T12:19:49;7.70;99.90
10388;DHT22;5240;51.128;4.566;2023-01-10T12:22:21;7.80;99.90
10388;DHT22;5240;51.128;4.566;2023-01-10T12:24:53;7.70;99.90
10388;DHT22;5240;51.128;4.566;2023-01-10T12:27:21;7.80;99.90
10388;DHT22;5240;51.128;4.566;2023-01-10T12:29:55;7.80;99.90
10388;DHT22;5240;51.128;4.566;2023-01-10T12:32:28;7.80;99.90
10388;DHT22;5240;51.128;4.566;2023-01-10T12:35:00;7.90;99.90
10388;DHT22;5240;51.128;4.566;2023-01-10T12:37:33;8.50;99.90
10388;DHT22;5240;51.128;4.566;2023-01-10T12:40:10;7.80;99.90
10388;DHT22;5240;51.128;4.566;2023-01-10T12:42:48;7.80;99.90
10388;DHT22;5240;51.128;4.566;2023-01-10T12:45:39;7.80;99.90
10388;DHT22;5240;51.128;4.566;2023-01-10T12:48:14;7.70;99.90
10388;DHT22;5240;51.128;4.566;2023-01-10T12:50:49;7.70;99.90
10388;DHT22;5240;51.128;4.566;2023-01-10T12:53:28;7.60;99.90
10388;DHT22;5240;51.128;4.566;2023-01-10T12:55:59;7.60;99.90
10388;DHT22;5240;51.128;4.566;2023-01-10T12:58:35;7.50;99.90
10388;DHT22;5240;51.128;4.566;2023-01-10T13:01:03;7.50;99.90
10388;DHT22;5240;51.128;4.566;2023-01-10T13:03:33;7.40;99.90
10388;DHT22;5240;51.128;4.566;2023-01-10T13:06:03;7.40;99.90
10388;DHT22;5240;51.128;4.566;2023-01-10T13:08:33;7.40;99.90
10388;DHT22;5240;51.128;4.566;2023-01-10T13:11:02;7.40;99.90
10388;DHT22;5240;51.128;4.566;2023-01-10T13:13:33;7.30;99.90
10388;DHT22;5240;51.128;4.566;2023-01-10T13:16:20;7.30;99.90
10388;DHT22;5240;51.128;4.566;2023-01-10T13:19:02;7.30;99.90
10388;DHT22;5240;51.128;4.566;2023-01-10T13:21:32;7.30;99.90
10388;DHT22;5240;51.128;4.566;2023-01-10T13:24:02;7.20;99.90
10388;DHT22;5240;51.128;4.566;2023-01-10T13:26:48;7.20;99.90
10388;DHT22;5240;51.128;4.566;2023-01-10T13:29:18;7.20;99.90
10388;DHT22;5240;51.128;4.566;2023-01-10T13:31:47;7.30;99.90
10388;DHT22;5240;51.128;4.566;2023-01-10T13:34:22;7.10;99.90
10388;DHT22;5240;51.128;4.566;2023-01-10T13:36:56;7.20;99.90
10388;DHT22;5240;51.128;4.566;2023-01-10T13:39:28;7.10;99.90
10388;DHT22;5240;51.128;4.566;2023-01-10T13:42:29;7.10;99.90
10388;DHT22;5240;51.128;4.566;2023-01-10T13:45:26;7.00;99.90
10388;DHT22;5240;51.128;4.566;2023-01-10T13:47:58;7.10;99.90
10388;DHT22;5240;51.128;4.566;2023-01-10T13:51:06;7.10;99.90
10388;DHT22;5240;51.128;4.566;2023-01-10T13:53:59;7.00;99.90
10388;DHT22;5240;51.128;4.566;2023-01-10T13:56:37;7.10;99.90
10388;DHT22;5240;51.128;4.566;2023-01-10T13:59:11;7.00;99.90
10388;DHT22;5240;51.128;4.566;2023-01-10T14:01:58;7.00;99.90
10388;DHT22;5240;51.128;4.566;2023-01-10T14:04:49;7.00;99.90
10388;DHT22;5240;51.128;4.566;2023-01-10T14:07:22;6.90;99.90
10388;DHT22;5240;51.128;4.566;2023-01-10T14:09:58;6.80;99.90
10388;DHT22;5240;51.128;4.566;2023-01-10T14:12:30;6.80;99.90
10388;DHT22;5240;51.128;4.566;2023-01-10T14:15:05;6.80;99.90
10388;DHT22;5240;51.128;4.566;2023-01-10T14:17:55;6.60;99.90
10388;DHT22;5240;51.128;4.566;2023-01-10T14:20:27;6.80;99.90
10388;DHT22;5240;51.128;4.566;2023-01-10T14:23:07;6.80;99.90
10388;DHT22;5240;51.128;4.566;2023-01-10T14:25:37;6.70;99.90
10388;DHT22;5240;51.128;4.566;2023-01-10T14:28:13;6.70;99.90
10388;DHT22;5240;51.128;4.566;2023-01-10T14:30:44;6.60;99.90
10388;DHT22;5240;51.128;4.566;2023-01-10T14:33:15;6.60;99.90
10388;DHT22;5240;51.128;4.566;2023-01-10T14:35:45;6.60;99.90
10388;DHT22;5240;51.128;4.566;2023-01-10T14:38:17;6.60;99.90
10388;DHT22;5240;51.128;4.566;2023-01-10T14:40:49;6.60;99.90
10388;DHT22;5240;51.128;4.566;2023-01-10T14:43:21;6.60;99.90
10388;DHT22;5240;51.128;4.566;2023-01-10T14:46:09;6.60;99.90
10388;DHT22;5240;51.128;4.566;2023-01-10T14:48:46;6.60;99.90
10388;DHT22;5240;51.128;4.566;2023-01-10T14:51:17;6.60;99.90
10388;DHT22;5240;51.128;4.566;2023-01-10T14:53:46;6.50;99.90
10388;DHT22;5240;51.128;4.566;2023-01-10T14:56:20;6.50;99.90
10388;DHT22;5240;51.128;4.566;2023-01-10T14:58:47;6.00;99.90
10388;DHT22;5240;51.128;4.566;2023-01-10T15:01:21;6.50;99.90
10388;DHT22;5240;51.128;4.566;2023-01-10T15:03:50;6.50;99.90
10388;DHT22;5240;51.128;4.566;2023-01-10T15:06:18;6.50;99.90
10388;DHT22;5240;51.128;4.566;2023-01-10T15:08:45;6.50;99.90
10388;DHT22;5240;51.128;4.566;2023-01-10T15:11:22;6.50;99.90
10388;DHT22;5240;51.128;4.566;2023-01-10T15:13:54;6.50;99.90
10388;DHT22;5240;51.128;4.566;2023-01-10T15:16:23;6.50;99.90
10388;DHT22;5240;51.128;4.566;2023-01-10T15:18:53;6.50;99.90
10388;DHT22;5240;51.128;4.566;2023-01-10T15:21:23;6.50;99.90
10388;DHT22;5240;51.128;4.566;2023-01-10T15:23:52;6.50;99.90
10388;DHT22;5240;51.128;4.566;2023-01-10T15:26:26;6.50;99.90
10388;DHT22;5240;51.128;4.566;2023-01-10T15:29:10;6.60;99.90
10388;DHT22;5240;51.128;4.566;2023-01-10T15:31:38;6.60;99.90
10388;DHT22;5240;51.128;4.566;2023-01-10T15:34:08;6.50;99.90
10388;DHT22;5240;51.128;4.566;2023-01-10T15:36:36;6.50;99.90
10388;DHT22;5240;51.128;4.566;2023-01-10T15:39:16;6.50;99.90
10388;DHT22;5240;51.128;4.566;2023-01-10T15:41:46;6.60;99.90
10388;DHT22;5240;51.128;4.566;2023-01-10T15:44:35;6.60;99.90
10388;DHT22;5240;51.128;4.566;2023-01-10T15:47:03;6.60;99.90
10388;DHT22;5240;51.128;4.566;2023-01-10T15:49:31;6.60;99.90
10388;DHT22;5240;51.128;4.566;2023-01-10T15:51:58;6.60;99.90
10388;DHT22;5240;51.128;4.566;2023-01-10T15:54:30;6.70;99.90
10388;DHT22;5240;51.128;4.566;2023-01-10T15:57:04;6.70;99.90
10388;DHT22;5240;51.128;4.566;2023-01-10T15:59:35;6.70;99.90
10388;DHT22;5240;51.128;4.566;2023-01-10T16:02:17;6.70;99.90
10388;DHT22;5240;51.128;4.566;2023-01-10T16:04:47;6.70;99.90
10388;DHT22;5240;51.128;4.566;2023-01-10T16:07:18;6.80;99.90
10388;DHT22;5240;51.128;4.566;2023-01-10T16:09:50;6.80;99.90
10388;DHT22;5240;51.128;4.566;2023-01-10T16:12:32;6.80;99.90
10388;DHT22;5240;51.128;4.566;2023-01-10T16:15:20;6.80;99.90
10388;DHT22;5240;51.128;4.566;2023-01-10T16:17:48;6.80;99.90
10388;DHT22;5240;51.128;4.566;2023-01-10T16:20:17;6.90;99.90
10388;DHT22;5240;51.128;4.566;2023-01-10T16:22:46;6.90;99.90
10388;DHT22;5240;51.128;4.566;2023-01-10T16:25:15;6.80;99.90
10388;DHT22;5240;51.128;4.566;2023-01-10T16:27:46;6.80;99.90
10388;DHT22;5240;51.128;4.566;2023-01-10T16:30:24;6.90;99.90